Time;durP1;ratioP1;P1;durP2;ratioP2;P2;SDS_P1;SDS_P2;PMS_P1;PMS_P2;Temp;Humidity;BMP_temperature;BMP_pressure;BME280_temperature;BME280_humidity;BME280_pressure;Samples;Min_cycle;Max_cycle;Signal;HPM_P1;HPM_P2
2023/08/25 00:02:33;;;;;;;20.02;18.23;;;19.10;99.90;;;;;;7378147;19;20010;-67
2023/08/25 00:05:19;;;;;;;21.77;19.55;;;19.10;99.90;;;;;;7378485;19;20535;-66
2023/08/25 00:08:08;;;;;;;20.25;18.17;;;19.00;99.90;;;;;;7370652;19;20031;-66
2023/08/25 00:10:55;;;;;;;20.92;18.95;;;19.00;99.90;;;;;;7373756;19;20014;-66
2023/08/25 00:13:41;;;;;;;20.90;18.70;;;19.00;99.90;;;;;;7377173;19;20566;-66
2023/08/25 00:16:28;;;;;;;20.98;18.95;;;19.00;99.90;;;;;;7374853;19;20372;-62
2023/08/25 00:19:17;;;;;;;21.65;19.58;;;18.90;99.90;;;;;;7375900;19;20021;-66
2023/08/25 00:22:03;;;;;;;22.48;20.40;;;18.90;99.90;;;;;;7373682;19;20026;-66
2023/08/25 00:24:50;;;;;;;21.92;19.65;;;18.90;99.90;;;;;;7369608;19;20510;-66
2023/08/25 00:27:36;;;;;;;22.15;20.20;;;18.90;99.90;;;;;;7373702;19;20014;-66
2023/08/25 00:30:23;;;;;;;24.65;22.23;;;18.90;99.90;;;;;;7373323;19;20014;-66
2023/08/25 00:33:09;;;;;;;23.60;20.55;;;18.90;99.90;;;;;;7370019;19;20019;-66
2023/08/25 00:35:55;;;;;;;22.63;20.40;;;19.00;99.90;;;;;;7372215;19;20025;-66
2023/08/25 00:38:41;;;;;;;22.35;20.40;;;19.10;99.90;;;;;;7366607;19;21361;-66
2023/08/25 00:41:28;;;;;;;22.33;20.30;;;19.20;99.90;;;;;;7374903;19;20068;-61
2023/08/25 00:44:14;;;;;;;23.60;21.30;;;19.20;99.90;;;;;;7374913;19;20018;-66
2023/08/25 00:47:00;;;;;;;24.15;21.98;;;19.20;99.90;;;;;;7372925;19;20025;-64
2023/08/25 00:49:48;;;;;;;22.77;20.67;;;19.20;99.90;;;;;;7368909;19;20010;-67
2023/08/25 00:52:36;;;;;;;22.80;20.63;;;19.30;99.90;;;;;;7365120;19;20030;-65
2023/08/25 00:55:23;;;;;;;23.23;21.15;;;19.30;99.90;;;;;;7372771;19;20018;-66
2023/08/25 00:58:10;;;;;;;23.13;19.92;;;19.40;99.90;;;;;;7369776;19;20038;-66
2023/08/25 01:00:58;;;;;;;23.20;21.00;;;19.30;99.90;;;;;;7368761;19;20006;-65
2023/08/25 01:03:48;;;;;;;21.80;19.67;;;19.30;99.90;;;;;;7368135;19;20026;-67
2023/08/25 01:06:34;;;;;;;22.35;20.20;;;19.40;99.90;;;;;;7370379;19;20014;-62
2023/08/25 01:09:21;;;;;;;22.75;20.50;;;19.40;99.90;;;;;;7375617;19;20030;-66
2023/08/25 01:12:27;;;;;;;21.45;19.45;;;19.40;99.90;;;;;;7372452;19;20418;-66
2023/08/25 01:15:29;;;;;;;23.33;20.95;;;19.30;99.90;;;;;;7375581;19;20378;-66
2023/08/25 01:18:23;;;;;;;25.80;22.98;;;19.40;99.90;;;;;;7375800;19;20019;-66
2023/08/25 01:21:11;;;;;;;23.50;21.27;;;19.40;99.90;;;;;;7374085;19;20409;-66
2023/08/25 01:24:10;;;;;;;23.23;21.13;;;19.50;99.90;;;;;;7370808;19;20813;-67
2023/08/25 01:26:57;;;;;;;25.35;22.73;;;19.40;99.90;;;;;;7371444;19;20021;-66
2023/08/25 01:29:43;;;;;;;24.50;22.27;;;19.50;99.90;;;;;;7368883;19;20014;-66
2023/08/25 01:32:30;;;;;;;24.33;22.02;;;19.50;99.90;;;;;;7367521;19;20010;-66
2023/08/25 01:35:21;;;;;;;25.23;22.65;;;19.50;99.90;;;;;;7370184;19;20021;-65
2023/08/25 01:38:16;;;;;;;24.73;22.45;;;19.50;99.90;;;;;;7369844;19;20010;-66
2023/08/25 01:41:33;;;;;;;25.00;22.70;;;19.50;99.90;;;;;;7369523;19;20849;-66
2023/08/25 01:44:23;;;;;;;26.35;23.85;;;19.50;99.90;;;;;;7366407;19;20451;-66
2023/08/25 01:47:11;;;;;;;26.60;24.08;;;19.50;99.90;;;;;;7370786;19;20021;-65
2023/08/25 01:49:58;;;;;;;27.92;25.35;;;19.50;99.90;;;;;;7363455;19;20015;-66
2023/08/25 01:52:44;;;;;;;29.20;26.17;;;19.50;99.90;;;;;;7367650;19;20090;-66
2023/08/25 01:55:30;;;;;;;28.65;25.85;;;19.40;99.90;;;;;;7365639;19;21108;-66
2023/08/25 01:58:18;;;;;;;29.08;26.13;;;19.40;99.90;;;;;;7368664;19;20018;-66
2023/08/25 02:01:05;;;;;;;29.48;26.40;;;19.40;99.90;;;;;;7365293;19;20390;-66
2023/08/25 02:03:52;;;;;;;30.67;27.60;;;19.30;99.90;;;;;;7369735;19;20043;-66
2023/08/25 02:06:38;;;;;;;31.02;28.02;;;19.40;99.90;;;;;;7370255;19;20010;-66
2023/08/25 02:09:25;;;;;;;30.55;27.65;;;19.30;99.90;;;;;;7368830;19;20018;-66
2023/08/25 02:12:11;;;;;;;33.60;30.40;;;19.30;99.90;;;;;;7371058;19;20014;-65
2023/08/25 02:14:58;;;;;;;37.38;33.80;;;19.30;99.90;;;;;;7367369;19;20044;-66
2023/08/25 02:17:44;;;;;;;37.40;33.42;;;19.20;99.90;;;;;;7369942;19;20011;-66
2023/08/25 02:20:31;;;;;;;37.28;33.65;;;19.20;99.90;;;;;;7367086;19;20014;-65
2023/08/25 02:23:17;;;;;;;39.50;35.63;;;19.10;99.90;;;;;;7371474;19;20014;-66
2023/08/25 02:26:03;;;;;;;38.38;34.42;;;19.20;99.90;;;;;;7370737;19;20018;-68
2023/08/25 02:28:49;;;;;;;39.38;35.50;;;19.20;99.90;;;;;;7364770;19;20014;-65
2023/08/25 02:31:35;;;;;;;38.20;34.47;;;19.20;99.90;;;;;;7374127;19;20444;-66
2023/08/25 02:34:22;;;;;;;39.08;35.25;;;19.10;99.90;;;;;;7372965;19;20022;-66
2023/08/25 02:37:09;;;;;;;37.50;33.80;;;19.00;99.90;;;;;;7367780;19;20081;-67
2023/08/25 02:39:55;;;;;;;38.72;34.80;;;19.00;99.90;;;;;;7363229;19;20018;-66
2023/08/25 02:42:41;;;;;;;38.38;34.35;;;18.90;99.90;;;;;;7371216;19;20010;-66
2023/08/25 02:45:28;;;;;;;38.00;34.25;;;18.90;99.90;;;;;;7371979;19;20023;-62
2023/08/25 02:48:14;;;;;;;35.80;32.22;;;18.80;99.90;;;;;;7371941;19;20007;-63
2023/08/25 02:51:00;;;;;;;39.15;35.13;;;18.90;99.90;;;;;;7373457;19;20021;-62
2023/08/25 02:53:47;;;;;;;36.90;33.22;;;18.90;99.90;;;;;;7371631;19;20520;-62
2023/08/25 02:56:33;;;;;;;37.10;33.28;;;18.90;99.90;;;;;;7372027;19;20017;-63
2023/08/25 02:59:20;;;;;;;39.00;35.20;;;18.90;99.90;;;;;;7373930;19;20023;-63
2023/08/25 03:02:07;;;;;;;38.08;34.45;;;18.80;99.90;;;;;;7371780;19;20010;-63
2023/08/25 03:04:53;;;;;;;40.42;36.15;;;18.80;99.90;;;;;;7369786;19;20018;-62
2023/08/25 03:07:39;;;;;;;40.15;35.67;;;18.70;99.90;;;;;;7373430;19;20011;-63
2023/08/25 03:10:27;;;;;;;40.30;36.22;;;18.70;99.90;;;;;;7374285;19;20030;-63
2023/08/25 03:13:14;;;;;;;38.08;34.10;;;18.70;99.90;;;;;;7373529;19;20018;-63
2023/08/25 03:16:03;;;;;;;41.60;37.25;;;18.70;99.90;;;;;;7371226;19;20093;-63
2023/08/25 03:18:50;;;;;;;41.17;37.17;;;18.70;99.90;;;;;;7373916;19;20010;-63
2023/08/25 03:21:37;;;;;;;39.22;35.30;;;18.70;99.90;;;;;;7374264;19;20018;-63
2023/08/25 03:24:23;;;;;;;39.70;35.90;;;18.70;99.90;;;;;;7370067;19;20010;-62
2023/08/25 03:27:10;;;;;;;38.83;34.78;;;18.70;99.90;;;;;;7374393;19;20014;-63
2023/08/25 03:29:56;;;;;;;39.65;35.58;;;18.70;99.90;;;;;;7375509;19;20042;-63
2023/08/25 03:32:42;;;;;;;39.00;35.15;;;18.80;99.90;;;;;;7380184;19;20053;-63
2023/08/25 03:35:34;;;;;;;38.47;34.50;;;18.80;99.90;;;;;;7380504;19;20010;-63
2023/08/25 03:38:20;;;;;;;37.40;33.63;;;18.80;99.90;;;;;;7376737;19;20043;-63
2023/08/25 03:41:06;;;;;;;39.20;35.20;;;18.80;99.90;;;;;;7377665;19;20378;-63
2023/08/25 03:43:52;;;;;;;37.13;33.42;;;18.70;99.90;;;;;;7378410;19;20010;-63
2023/08/25 03:46:38;;;;;;;38.92;34.90;;;18.60;99.90;;;;;;7379031;19;20018;-65
2023/08/25 03:49:28;;;;;;;37.60;33.85;;;18.60;99.90;;;;;;7378765;19;20015;-62
2023/08/25 03:52:14;;;;;;;37.40;33.47;;;18.60;99.90;;;;;;7381657;19;20018;-63
2023/08/25 03:55:00;;;;;;;37.88;34.05;;;18.50;99.90;;;;;;7376065;19;20019;-63
2023/08/25 03:57:46;;;;;;;39.72;35.63;;;18.50;99.90;;;;;;7379644;19;20388;-63
2023/08/25 04:00:34;;;;;;;38.92;34.95;;;18.50;99.90;;;;;;7380470;19;20028;-63
2023/08/25 04:03:20;;;;;;;41.13;36.88;;;18.50;99.90;;;;;;7377942;19;20010;-63
2023/08/25 04:06:06;;;;;;;41.03;36.65;;;18.60;99.90;;;;;;7378036;19;20022;-63
2023/08/25 04:08:53;;;;;;;41.90;37.47;;;18.60;99.90;;;;;;7371081;19;20022;-67
2023/08/25 04:11:39;;;;;;;41.20;37.00;;;18.60;99.90;;;;;;7373789;19;20018;-67
2023/08/25 04:14:25;;;;;;;44.50;39.67;;;18.60;99.90;;;;;;7375844;19;20025;-67
2023/08/25 04:17:11;;;;;;;43.95;39.30;;;18.60;99.90;;;;;;7374988;19;20343;-67
2023/08/25 04:19:58;;;;;;;42.97;38.42;;;18.60;99.90;;;;;;7367308;19;20010;-66
2023/08/25 04:22:44;;;;;;;45.67;40.75;;;18.60;99.90;;;;;;7373485;19;20010;-66
2023/08/25 04:25:30;;;;;;;46.38;41.28;;;18.70;99.90;;;;;;7372803;19;20592;-66
2023/08/25 04:28:19;;;;;;;49.08;43.83;;;18.70;99.90;;;;;;7370414;19;20515;-66
2023/08/25 04:31:06;;;;;;;57.17;46.17;;;18.70;99.90;;;;;;7372890;19;20540;-66
2023/08/25 04:33:56;;;;;;;53.78;46.35;;;18.70;99.90;;;;;;7372584;19;20351;-63
2023/08/25 04:36:45;;;;;;;59.88;48.00;;;18.60;99.90;;;;;;7374357;19;20509;-63
2023/08/25 04:39:31;;;;;;;66.22;47.38;;;18.60;99.90;;;;;;7375289;19;20019;-62
2023/08/25 04:42:17;;;;;;;58.00;47.55;;;18.60;99.90;;;;;;7373035;19;20021;-63
2023/08/25 04:45:04;;;;;;;53.72;46.97;;;18.60;99.90;;;;;;7377403;19;20021;-63
2023/08/25 04:47:51;;;;;;;62.55;51.05;;;18.60;99.90;;;;;;7378319;19;20363;-62
2023/08/25 04:50:38;;;;;;;59.58;48.30;;;18.60;99.90;;;;;;7379948;19;20025;-63
2023/08/25 04:53:24;;;;;;;55.83;48.60;;;18.60;99.90;;;;;;7375044;19;20588;-66
2023/08/25 04:56:11;;;;;;;59.30;50.30;;;18.60;99.90;;;;;;7372935;19;20121;-66
2023/08/25 04:58:58;;;;;;;52.88;45.53;;;18.60;99.90;;;;;;7374146;19;20454;-66
2023/08/25 05:01:46;;;;;;;51.95;46.05;;;18.60;99.90;;;;;;7369823;19;20532;-66
2023/08/25 05:04:33;;;;;;;62.33;50.35;;;18.50;99.90;;;;;;7371910;19;20439;-66
2023/08/25 05:07:19;;;;;;;60.72;49.65;;;18.50;99.90;;;;;;7372976;19;20020;-66
2023/08/25 05:10:06;;;;;;;61.90;50.70;;;18.50;99.90;;;;;;7369098;19;20030;-67
2023/08/25 05:12:53;;;;;;;58.05;49.72;;;18.50;99.90;;;;;;7373926;19;20043;-66
2023/08/25 05:15:39;;;;;;;63.00;52.38;;;18.50;99.90;;;;;;7376726;19;20003;-62
2023/08/25 05:18:26;;;;;;;61.67;50.50;;;18.60;99.90;;;;;;7376736;19;20014;-63
2023/08/25 05:21:14;;;;;;;65.88;50.97;;;18.50;99.90;;;;;;7373750;19;20018;-63
2023/08/25 05:24:23;;;;;;;71.55;53.92;;;18.60;99.90;;;;;;7368707;19;20026;-66
2023/08/25 05:27:11;;;;;;;80.18;55.45;;;18.70;99.90;;;;;;7369828;19;20017;-67
2023/08/25 05:29:58;;;;;;;86.55;57.33;;;18.70;99.90;;;;;;7368990;19;20017;-66
2023/08/25 05:32:45;;;;;;;90.13;57.03;;;18.80;99.90;;;;;;7372617;19;20010;-67
2023/08/25 05:35:51;;;;;;;76.35;55.75;;;18.80;99.90;;;;;;7373171;19;20100;-67
2023/08/25 05:38:37;;;;;;;85.07;58.03;;;18.80;99.90;;;;;;7371228;19;20022;-66
2023/08/25 05:41:23;;;;;;;74.63;54.28;;;18.80;99.90;;;;;;7370098;19;20037;-66
2023/08/25 05:44:09;;;;;;;70.65;56.10;;;18.80;99.90;;;;;;7369381;19;20018;-67
2023/08/25 05:46:56;;;;;;;74.15;56.17;;;18.90;99.90;;;;;;7370752;19;20077;-66
2023/08/25 05:49:43;;;;;;;80.20;56.83;;;19.00;99.90;;;;;;7368684;19;20010;-68
2023/08/25 05:52:29;;;;;;;66.20;54.47;;;19.00;99.90;;;;;;7371266;19;20082;-67
2023/08/25 05:55:17;;;;;;;71.40;54.55;;;19.10;99.90;;;;;;7371333;19;20035;-67
2023/08/25 05:58:03;;;;;;;65.28;52.85;;;19.20;99.90;;;;;;7364296;19;20021;-67
2023/08/25 06:00:50;;;;;;;68.43;54.83;;;19.40;99.90;;;;;;7371514;19;20014;-67
2023/08/25 06:03:38;;;;;;;65.47;53.38;;;19.50;99.90;;;;;;7370392;19;20503;-67
2023/08/25 06:06:25;;;;;;;65.68;52.05;;;19.50;99.90;;;;;;7366506;19;20362;-68
2023/08/25 06:09:12;;;;;;;60.53;49.72;;;19.60;99.90;;;;;;7367947;19;20088;-67
2023/08/25 06:11:59;;;;;;;66.07;52.13;;;19.60;99.90;;;;;;7368690;19;20661;-67
2023/08/25 06:14:46;;;;;;;65.68;50.50;;;19.70;99.90;;;;;;7370888;19;20382;-67
2023/08/25 06:17:32;;;;;;;60.55;50.20;;;19.70;99.90;;;;;;7371552;19;20085;-67
2023/08/25 06:20:19;;;;;;;59.33;50.22;;;19.70;99.90;;;;;;7364832;19;20019;-67
2023/08/25 06:23:05;;;;;;;65.50;50.70;;;19.70;99.90;;;;;;7368835;19;20014;-67
2023/08/25 06:25:51;;;;;;;64.20;51.83;;;19.80;99.90;;;;;;7368504;19;20022;-67
2023/08/25 06:28:37;;;;;;;57.50;48.88;;;19.90;99.90;;;;;;7370478;19;20363;-67
2023/08/25 06:31:23;;;;;;;58.45;47.80;;;19.90;99.90;;;;;;7368046;19;20015;-67
2023/08/25 06:34:10;;;;;;;58.38;49.65;;;19.90;99.90;;;;;;7368547;19;20010;-66
2023/08/25 06:36:56;;;;;;;62.97;49.63;;;20.00;99.90;;;;;;7369103;19;20043;-66
2023/08/25 06:39:43;;;;;;;50.08;44.13;;;20.10;99.90;;;;;;7366787;19;20027;-68
2023/08/25 06:42:30;;;;;;;55.33;45.67;;;20.30;99.90;;;;;;7370177;19;20347;-68
2023/08/25 06:45:16;;;;;;;54.53;47.45;;;20.30;99.90;;;;;;7367554;19;20010;-69
2023/08/25 06:48:02;;;;;;;53.35;47.88;;;20.40;99.90;;;;;;7368099;19;20014;-70
2023/08/25 06:50:48;;;;;;;46.70;41.78;;;20.60;99.90;;;;;;7371318;19;20014;-70
2023/08/25 06:53:35;;;;;;;47.90;42.92;;;20.70;99.90;;;;;;7366071;19;20026;-69
2023/08/25 06:56:21;;;;;;;47.85;42.70;;;21.00;99.90;;;;;;7368853;19;20018;-69
2023/08/25 06:59:07;;;;;;;46.83;41.50;;;21.10;99.90;;;;;;7370972;19;20030;-69
2023/08/25 07:01:53;;;;;;;44.75;40.05;;;21.20;99.90;;;;;;7368115;19;20363;-69
2023/08/25 07:04:41;;;;;;;45.03;40.42;;;21.30;99.90;;;;;;7377723;19;20371;-70
2023/08/25 07:07:27;;;;;;;42.35;38.00;;;21.40;99.90;;;;;;7378409;19;20031;-70
2023/08/25 07:10:13;;;;;;;43.50;39.00;;;21.60;99.90;;;;;;7373606;19;20380;-70
2023/08/25 07:13:00;;;;;;;39.97;36.08;;;21.50;99.90;;;;;;7373855;19;20014;-69
2023/08/25 07:15:46;;;;;;;41.17;37.28;;;21.60;99.90;;;;;;7378249;19;20014;-69
2023/08/25 07:18:33;;;;;;;42.28;38.08;;;21.70;99.90;;;;;;7376267;19;20442;-70
2023/08/25 07:21:19;;;;;;;43.53;39.08;;;21.70;99.90;;;;;;7373648;19;20023;-70
2023/08/25 07:24:05;;;;;;;40.95;37.00;;;21.60;99.90;;;;;;7371762;19;20010;-71
2023/08/25 07:26:51;;;;;;;42.10;37.70;;;21.60;99.90;;;;;;7375303;19;20014;-70
2023/08/25 07:29:38;;;;;;;41.85;37.65;;;21.50;99.90;;;;;;7373666;19;20042;-70
2023/08/25 07:32:24;;;;;;;43.60;39.22;;;21.50;99.90;;;;;;7376807;19;20471;-69
2023/08/25 07:35:10;;;;;;;43.85;39.25;;;21.60;99.90;;;;;;7378205;19;20061;-68
2023/08/25 07:37:57;;;;;;;42.65;38.33;;;21.60;99.90;;;;;;7375763;19;20025;-68
2023/08/25 07:40:43;;;;;;;41.92;37.70;;;21.80;99.90;;;;;;7375108;19;20018;-69
2023/08/25 07:43:30;;;;;;;43.45;38.97;;;22.10;99.90;;;;;;7376850;19;20026;-69
2023/08/25 07:46:16;;;;;;;41.85;37.42;;;22.20;99.90;;;;;;7374443;19;20484;-70
2023/08/25 07:49:02;;;;;;;41.08;36.83;;;22.30;99.90;;;;;;7372895;19;20376;-69
2023/08/25 07:51:49;;;;;;;41.28;36.85;;;22.40;99.90;;;;;;7373137;19;20026;-63
2023/08/25 07:54:35;;;;;;;40.78;36.67;;;22.40;99.90;;;;;;7376875;19;20022;-62
2023/08/25 07:57:21;;;;;;;38.17;34.45;;;22.30;99.90;;;;;;7377052;19;20014;-61
2023/08/25 08:00:12;;;;;;;39.05;34.92;;;22.30;99.90;;;;;;7375095;19;20014;-62
2023/08/25 08:03:04;;;;;;;39.13;34.80;;;22.30;99.90;;;;;;7375021;19;20019;-62
2023/08/25 08:05:51;;;;;;;40.00;35.88;;;22.30;99.90;;;;;;7375968;19;20022;-62
2023/08/25 08:08:37;;;;;;;40.58;36.15;;;22.30;99.90;;;;;;7372197;19;20022;-69
2023/08/25 08:11:24;;;;;;;39.38;35.35;;;22.80;99.90;;;;;;7373790;19;20039;-68
2023/08/25 08:14:10;;;;;;;38.33;34.22;;;23.30;99.90;;;;;;7370454;19;20034;-62
2023/08/25 08:16:56;;;;;;;37.58;33.78;;;23.20;99.90;;;;;;7373307;19;20018;-61
2023/08/25 08:19:43;;;;;;;35.25;31.58;;;23.20;99.90;;;;;;7376382;19;20025;-62
2023/08/25 08:22:32;;;;;;;35.50;31.80;;;23.10;99.90;;;;;;7374915;19;20048;-64
2023/08/25 08:25:19;;;;;;;33.25;29.83;;;22.80;99.90;;;;;;7367499;19;20138;-63
2023/08/25 08:28:08;;;;;;;35.33;31.67;;;22.60;99.90;;;;;;7373034;19;20018;-62
2023/08/25 08:30:58;;;;;;;37.15;33.28;;;22.50;99.90;;;;;;7374007;19;20018;-62
2023/08/25 08:33:47;;;;;;;38.28;34.25;;;22.40;99.90;;;;;;7370229;19;20014;-61
2023/08/25 08:36:34;;;;;;;39.67;35.72;;;22.30;99.90;;;;;;7371366;19;20021;-62
2023/08/25 08:39:21;;;;;;;35.47;31.70;;;22.10;99.90;;;;;;7373080;19;20014;-61
2023/08/25 08:42:11;;;;;;;35.53;31.92;;;22.00;99.90;;;;;;7370895;19;20549;-61
2023/08/25 08:45:06;;;;;;;35.60;31.42;;;22.00;99.90;;;;;;7371910;19;20015;-61
2023/08/25 08:47:53;;;;;;;39.92;35.65;;;22.00;99.90;;;;;;7373839;19;20055;-62
2023/08/25 08:50:42;;;;;;;40.70;36.53;;;22.00;99.90;;;;;;7374337;19;20014;-62
2023/08/25 08:53:08;;;;;;;40.75;36.45;;;22.10;99.90;;;;;;7375325;19;20048;-62
2023/08/25 08:55:35;;;;;;;40.00;35.80;;;22.10;99.90;;;;;;7373125;19;20025;-62
2023/08/25 08:58:03;;;;;;;40.15;35.85;;;22.20;99.90;;;;;;7374949;19;20018;-62
2023/08/25 09:00:31;;;;;;;40.60;36.55;;;22.20;99.90;;;;;;7373232;19;20486;-62
2023/08/25 09:02:58;;;;;;;38.70;34.75;;;22.20;99.90;;;;;;7375752;19;20010;-62
2023/08/25 09:05:27;;;;;;;37.65;33.88;;;22.20;99.90;;;;;;7372755;19;20015;-62
2023/08/25 09:08:00;;;;;;;38.05;33.75;;;22.20;99.90;;;;;;7372942;19;20010;-62
2023/08/25 09:10:27;;;;;;;38.10;34.28;;;22.10;99.90;;;;;;7368456;19;20019;-62
2023/08/25 09:12:54;;;;;;;39.28;35.28;;;22.20;99.90;;;;;;7371951;19;20015;-70
2023/08/25 09:15:29;;;;;;;38.83;34.65;;;22.00;99.90;;;;;;7369550;19;20032;-62
2023/08/25 09:18:03;;;;;;;40.08;36.10;;;22.10;99.90;;;;;;7372218;19;20705;-69
2023/08/25 09:20:33;;;;;;;38.40;34.25;;;22.00;99.90;;;;;;7369245;19;20108;-64
2023/08/25 09:23:01;;;;;;;40.60;35.22;;;21.90;99.90;;;;;;7372138;19;20018;-68
2023/08/25 09:25:32;;;;;;;38.90;34.72;;;22.00;99.90;;;;;;7367674;19;20034;-61
2023/08/25 09:28:03;;;;;;;39.28;35.10;;;21.90;99.90;;;;;;7370400;19;20029;-61
2023/08/25 09:30:41;;;;;;;38.30;34.35;;;21.90;99.90;;;;;;7370728;19;20035;-62
2023/08/25 09:33:11;;;;;;;39.72;35.08;;;21.80;99.90;;;;;;7371424;19;20014;-61
2023/08/25 09:36:02;;;;;;;41.45;36.80;;;21.80;99.90;;;;;;7370242;19;20446;-63
2023/08/25 09:38:29;;;;;;;38.38;34.33;;;21.70;99.90;;;;;;7372791;19;20090;-61
2023/08/25 09:40:57;;;;;;;40.63;36.58;;;21.70;99.90;;;;;;7371812;19;20039;-61
2023/08/25 09:43:33;;;;;;;43.22;36.45;;;21.80;99.90;;;;;;7370775;19;20015;-61
2023/08/25 09:46:05;;;;;;;41.90;37.30;;;21.70;99.90;;;;;;7369155;19;20573;-65
2023/08/25 09:48:32;;;;;;;40.53;36.35;;;21.80;99.90;;;;;;7372064;19;20433;-62
2023/08/25 09:50:59;;;;;;;43.58;38.88;;;21.80;99.90;;;;;;7370149;19;20010;-62
2023/08/25 09:53:31;;;;;;;42.60;38.05;;;21.90;99.90;;;;;;7369327;19;20491;-61
2023/08/25 09:56:02;;;;;;;43.00;38.42;;;21.90;99.90;;;;;;7371257;19;20011;-61
2023/08/25 09:58:28;;;;;;;42.35;38.05;;;22.00;99.90;;;;;;7372121;19;20015;-62
2023/08/25 10:00:55;;;;;;;43.83;37.90;;;22.00;99.90;;;;;;7370436;19;20017;-62
2023/08/25 10:03:22;;;;;;;43.55;36.80;;;22.10;99.90;;;;;;7366974;19;20476;-61
2023/08/25 10:05:48;;;;;;;41.78;37.35;;;22.00;99.90;;;;;;7373691;19;20367;-61
2023/08/25 10:08:16;;;;;;;43.13;38.53;;;22.20;99.90;;;;;;7370714;19;20011;-62
2023/08/25 10:10:45;;;;;;;43.15;37.58;;;22.40;99.90;;;;;;7365569;19;20014;-61
2023/08/25 10:13:33;;;;;;;43.00;35.08;;;22.60;99.90;;;;;;7368400;19;20470;-62
2023/08/25 10:16:03;;;;;;;40.90;36.78;;;22.80;99.90;;;;;;7371070;19;20018;-62
2023/08/25 10:18:37;;;;;;;41.20;36.78;;;22.90;99.90;;;;;;7364513;19;20155;-61
2023/08/25 10:21:09;;;;;;;41.30;36.80;;;22.90;99.90;;;;;;7372823;19;20007;-61
2023/08/25 10:23:37;;;;;;;37.25;33.53;;;23.10;99.90;;;;;;7368375;19;20463;-62
2023/08/25 10:26:05;;;;;;;35.17;31.52;;;23.50;99.90;;;;;;7374274;19;20377;-61
2023/08/25 10:28:33;;;;;;;30.55;27.33;;;24.50;99.90;;;;;;7364292;19;20014;-62
2023/08/25 10:31:00;;;;;;;30.45;27.48;;;25.10;99.90;;;;;;7374539;19;20437;-62
2023/08/25 10:33:27;;;;;;;29.15;26.15;;;25.10;99.90;;;;;;7367683;19;20015;-61
2023/08/25 10:35:54;;;;;;;27.63;24.77;;;25.20;99.90;;;;;;7370505;19;20421;-62
2023/08/25 10:38:29;;;;;;;28.00;23.45;;;25.30;99.90;;;;;;7369559;19;20014;-61
2023/08/25 10:40:57;;;;;;;27.10;24.15;;;25.30;99.90;;;;;;7376893;19;20014;-62
2023/08/25 10:43:37;;;;;;;28.42;25.52;;;25.50;99.90;;;;;;7376200;19;20018;-62
2023/08/25 10:46:10;;;;;;;28.77;25.90;;;25.20;99.90;;;;;;7374890;19;20051;-62
2023/08/25 10:48:40;;;;;;;28.92;25.95;;;25.00;99.90;;;;;;7376373;19;20054;-62
2023/08/25 10:51:13;;;;;;;28.33;25.40;;;24.70;99.90;;;;;;7377918;19;20022;-62
2023/08/25 10:53:44;;;;;;;25.90;23.17;;;24.70;99.90;;;;;;7374158;19;20018;-61
2023/08/25 10:56:23;;;;;;;28.65;25.58;;;25.00;99.90;;;;;;7377281;19;20014;-70
2023/08/25 10:59:09;;;;;;;28.80;25.55;;;25.00;99.90;;;;;;7376818;19;20022;-62
2023/08/25 11:01:38;;;;;;;27.33;24.63;;;25.00;99.90;;;;;;7376904;19;20011;-61
2023/08/25 11:04:10;;;;;;;28.88;26.20;;;25.00;99.90;;;;;;7379128;19;20509;-62
2023/08/25 11:06:41;;;;;;;29.77;26.77;;;24.90;99.90;;;;;;7372965;19;20014;-61
2023/08/25 11:09:11;;;;;;;29.13;26.17;;;24.70;99.90;;;;;;7369373;19;20609;-61
2023/08/25 11:11:41;;;;;;;29.00;26.23;;;24.40;99.90;;;;;;7377155;19;20378;-61
2023/08/25 11:14:29;;;;;;;30.17;27.27;;;24.30;99.90;;;;;;7373850;19;20007;-61
2023/08/25 11:16:57;;;;;;;29.50;26.70;;;24.10;99.90;;;;;;7374027;19;20278;-70
2023/08/25 11:19:26;;;;;;;30.42;27.55;;;24.00;99.90;;;;;;7374839;19;20506;-69
2023/08/25 11:22:00;;;;;;;30.00;27.23;;;23.90;99.90;;;;;;7375563;19;20018;-69
2023/08/25 11:24:29;;;;;;;28.77;25.98;;;23.80;99.90;;;;;;7375375;19;21102;-70
2023/08/25 11:27:09;;;;;;;29.48;26.67;;;23.80;99.90;;;;;;7378543;19;20406;-70
2023/08/25 11:29:35;;;;;;;29.77;26.95;;;23.80;99.90;;;;;;7374557;19;20728;-70
2023/08/25 11:32:02;;;;;;;27.63;25.02;;;24.00;99.90;;;;;;7374629;19;20081;-70
2023/08/25 11:34:32;;;;;;;28.90;26.38;;;24.30;99.90;;;;;;7375887;19;20015;-70
2023/08/25 11:37:00;;;;;;;27.73;25.02;;;24.40;99.90;;;;;;7377756;19;20022;-64
2023/08/25 11:39:26;;;;;;;25.88;23.23;;;24.80;99.90;;;;;;7375492;19;20026;-62
2023/08/25 11:41:54;;;;;;;25.80;23.42;;;24.70;99.90;;;;;;7372786;19;20010;-69
2023/08/25 11:44:21;;;;;;;27.90;25.50;;;24.80;99.90;;;;;;7377993;19;20030;-61
2023/08/25 11:46:48;;;;;;;27.60;25.08;;;24.60;99.90;;;;;;7376815;19;20043;-61
2023/08/25 11:49:17;;;;;;;26.23;23.80;;;24.50;99.90;;;;;;7371862;19;21574;-61
2023/08/25 11:51:44;;;;;;;25.25;22.83;;;24.40;99.90;;;;;;7376508;19;20031;-61
2023/08/25 11:54:10;;;;;;;26.45;23.95;;;24.60;99.90;;;;;;7376040;19;20054;-62
2023/08/25 11:56:36;;;;;;;25.55;22.90;;;24.50;99.90;;;;;;7373898;19;20014;-62
2023/08/25 11:59:03;;;;;;;23.63;21.13;;;24.40;99.90;;;;;;7369003;19;20022;-62
2023/08/25 12:01:32;;;;;;;25.33;22.90;;;24.20;99.90;;;;;;7373492;19;20611;-62
2023/08/25 12:03:59;;;;;;;24.42;21.92;;;24.00;99.90;;;;;;7375842;19;20483;-62
2023/08/25 12:06:26;;;;;;;23.80;21.55;;;23.80;99.90;;;;;;7372424;19;20105;-69
2023/08/25 12:08:52;;;;;;;24.88;22.63;;;23.70;99.90;;;;;;7375891;19;20010;-62
2023/08/25 12:11:41;;;;;;;24.55;22.05;;;23.60;99.90;;;;;;7371204;19;20442;-62
2023/08/25 12:14:07;;;;;;;24.63;22.42;;;23.40;99.90;;;;;;7370650;19;20010;-61
2023/08/25 12:16:34;;;;;;;24.77;21.48;;;23.30;99.90;;;;;;7372131;19;20094;-62
2023/08/25 12:19:03;;;;;;;23.27;21.17;;;23.20;99.90;;;;;;7374200;19;20109;-62
2023/08/25 12:21:35;;;;;;;25.70;22.67;;;23.30;99.90;;;;;;7371345;19;20110;-62
2023/08/25 12:24:22;;;;;;;16.67;14.88;;;23.30;99.90;;;;;;7367804;19;20010;-61
2023/08/25 12:26:48;;;;;;;16.23;13.13;;;23.20;99.90;;;;;;7374237;19;20014;-63
2023/08/25 12:29:15;;;;;;;14.52;12.40;;;22.90;99.90;;;;;;7369354;19;20035;-64
2023/08/25 12:31:41;;;;;;;9.80;6.97;;;22.60;99.90;;;;;;7373602;19;20110;-64
2023/08/25 12:34:07;;;;;;;10.32;8.15;;;22.50;99.90;;;;;;7372008;19;20453;-65
2023/08/25 12:36:35;;;;;;;7.60;5.90;;;22.40;99.90;;;;;;7378123;19;20019;-65
2023/08/25 12:39:03;;;;;;;9.73;7.65;;;22.20;99.90;;;;;;7372673;19;20039;-65
2023/08/25 12:41:30;;;;;;;8.52;6.70;;;22.30;99.90;;;;;;7370053;19;20051;-65
2023/08/25 12:43:58;;;;;;;7.47;6.70;;;22.10;99.90;;;;;;7373663;19;20015;-65
2023/08/25 12:46:25;;;;;;;7.25;6.20;;;22.10;99.90;;;;;;7372305;19;20378;-66
2023/08/25 12:48:51;;;;;;;9.50;8.52;;;22.10;99.90;;;;;;7390364;19;20017;-71
2023/08/25 12:51:18;;;;;;;10.00;8.98;;;22.00;99.90;;;;;;7396459;19;20358;-70
2023/08/25 12:53:45;;;;;;;11.80;10.60;;;22.00;99.90;;;;;;7394565;19;20100;-70
2023/08/25 12:56:11;;;;;;;13.10;11.70;;;22.00;99.90;;;;;;7392940;19;20098;-70
2023/08/25 12:58:39;;;;;;;14.82;13.45;;;21.90;99.90;;;;;;7396699;19;20010;-70
2023/08/25 13:01:08;;;;;;;19.50;17.65;;;21.90;99.90;;;;;;7393595;19;20385;-68
2023/08/25 13:03:34;;;;;;;18.95;17.15;;;21.80;99.90;;;;;;7393952;19;20399;-69
2023/08/25 13:06:03;;;;;;;16.33;14.82;;;21.70;99.90;;;;;;7393732;19;20030;-71
2023/08/25 13:08:30;;;;;;;16.13;14.63;;;21.50;99.90;;;;;;7395127;19;20017;-70
2023/08/25 13:10:56;;;;;;;23.38;21.08;;;21.50;99.90;;;;;;7394647;19;20490;-69
2023/08/25 13:13:43;;;;;;;27.17;24.58;;;21.40;99.90;;;;;;7387415;19;20444;-71
2023/08/25 13:16:10;;;;;;;28.63;25.73;;;21.30;99.90;;;;;;7393252;19;20014;-72
2023/08/25 13:18:41;;;;;;;35.30;28.85;;;21.20;99.90;;;;;;7385171;19;20010;-72
2023/08/25 13:21:11;;;;;;;26.98;24.42;;;21.20;99.90;;;;;;7374022;19;20021;-73
2023/08/25 13:23:37;;;;;;;27.92;25.23;;;21.00;99.90;;;;;;7373876;19;20055;-72
2023/08/25 13:26:06;;;;;;;32.92;29.63;;;20.80;99.90;;;;;;7375218;19;20023;-72
2023/08/25 13:28:32;;;;;;;38.38;34.38;;;20.80;99.90;;;;;;7378448;19;20015;-71
2023/08/25 13:30:59;;;;;;;36.25;32.67;;;20.70;99.90;;;;;;7375770;19;20569;-72
2023/08/25 13:33:28;;;;;;;39.28;35.45;;;20.70;99.90;;;;;;7379184;19;20486;-71
2023/08/25 13:35:55;;;;;;;40.50;36.75;;;20.70;99.90;;;;;;7380831;19;20460;-72
2023/08/25 13:38:21;;;;;;;43.20;39.13;;;20.70;99.90;;;;;;7390681;19;20022;-70